CheckWX is a tool to help pilots better visualize weather data.  It is not intended as a substitute for an official pre-flight weather briefing.

13:05:18 UTC

LIBA TAF
Amendola Airport
Foggia, Italy
TAF LIBA 261100Z 2612/2621 35015KT 9999 FEW020 BKN040 TEMPO 2612/2617 35020G35KT 6000 RA BKN025

Mar-26@
12:00 UTC

Mar-26 @ 12:00 UTC

Mar-26@
21:00 UTC

Mar-26 @ 21:00 UTC

TAF LIBA 261100Z 2612/2621 35015KT 9999 FEW020 BKN040
Wind
  • 350° at 15 KTS
Cloud Levels
  • Few at 2,000' AGL
  • Broken at 4,000' AGL

Mar-26@
12:00 UTC

Mar-26 @ 12:00 UTC

Mar-26@
17:00 UTC

Mar-26 @ 17:00 UTC

TEMPO 2612/2617 35020G35KT 6000 RA BKN025

Temporary

Temporary Changes expected for less than half the time period

Wind
  • 350° at 20 KTS
  • {Gusting to 35 KTS
Conditions
Rain
Cloud Levels
  • Broken at 2,500' AGL